createdAt,value
2023-10-31T00:01:57.867Z,9.90
2023-10-31T00:04:24.305Z,10.15
2023-10-31T00:06:50.798Z,10.08
2023-10-31T00:09:17.295Z,10.10
2023-10-31T00:11:43.723Z,10.07
2023-10-31T00:14:29.032Z,10.17
2023-10-31T00:16:56.590Z,10.13
2023-10-31T00:19:23.052Z,10.08
2023-10-31T00:21:49.488Z,10.12
2023-10-31T00:24:15.948Z,10.20
2023-10-31T00:26:42.386Z,10.17
2023-10-31T00:29:08.851Z,10.24
2023-10-31T00:31:35.347Z,10.23
2023-10-31T00:34:01.808Z,10.25
2023-10-31T00:36:28.328Z,10.30
2023-10-31T00:38:54.751Z,10.18
2023-10-31T00:41:21.197Z,10.19
2023-10-31T00:43:47.657Z,10.35
2023-10-31T00:46:14.087Z,10.22
2023-10-31T00:48:40.544Z,10.18
2023-10-31T00:51:06.980Z,9.93
2023-10-31T00:53:33.470Z,10.02
2023-10-31T00:55:59.976Z,10.08
2023-10-31T00:58:26.478Z,10.11
2023-10-31T01:00:52.924Z,9.92
2023-10-31T01:03:19.428Z,10.08
2023-10-31T01:05:45.919Z,10.05
2023-10-31T01:08:12.457Z,10.33
2023-10-31T01:10:38.909Z,10.45
2023-10-31T01:13:05.346Z,10.37
2023-10-31T01:15:31.761Z,10.34
2023-10-31T01:17:58.207Z,10.42
2023-10-31T01:20:24.646Z,10.23
2023-10-31T01:22:51.099Z,10.19
2023-10-31T01:25:17.559Z,10.18
2023-10-31T01:27:43.975Z,10.32
2023-10-31T01:30:10.418Z,10.33
2023-10-31T01:32:36.922Z,10.51
2023-10-31T01:35:03.547Z,10.46
2023-10-31T01:37:30.000Z,10.34
2023-10-31T01:39:56.453Z,10.49
2023-10-31T01:42:22.876Z,10.57
2023-10-31T01:44:49.289Z,10.39
2023-10-31T01:47:15.750Z,10.28
2023-10-31T01:49:42.200Z,10.39
2023-10-31T01:52:08.658Z,10.39
2023-10-31T01:54:35.200Z,10.50
2023-10-31T01:57:01.659Z,10.37
2023-10-31T01:59:28.080Z,10.51
2023-10-31T02:01:54.587Z,10.72
2023-10-31T02:04:21.058Z,10.64
2023-10-31T02:06:47.475Z,10.93
2023-10-31T02:09:13.907Z,11.06
2023-10-31T02:11:40.346Z,10.47
2023-10-31T02:14:06.897Z,10.33
2023-10-31T02:16:33.441Z,10.19
2023-10-31T02:18:59.902Z,10.24
2023-10-31T02:21:26.325Z,10.35
2023-10-31T02:23:52.763Z,10.09
2023-10-31T02:26:19.245Z,10.14
2023-10-31T02:28:45.680Z,10.26
2023-10-31T02:31:12.170Z,10.04
2023-10-31T02:33:38.591Z,10.08
2023-10-31T02:36:05.021Z,10.12
2023-10-31T02:38:31.564Z,10.15
2023-10-31T02:40:58.058Z,10.18
2023-10-31T02:43:24.495Z,10.22
2023-10-31T02:45:50.922Z,10.25
2023-10-31T02:48:17.370Z,10.19
2023-10-31T02:50:43.792Z,10.44
2023-10-31T02:53:10.248Z,10.53
2023-10-31T02:55:36.841Z,10.59
2023-10-31T02:58:03.369Z,10.59
2023-10-31T03:00:29.791Z,10.44
2023-10-31T03:02:56.314Z,10.32
2023-10-31T03:05:22.867Z,10.23
2023-10-31T03:07:49.344Z,10.16
2023-10-31T03:10:15.859Z,10.16
2023-10-31T03:12:42.297Z,10.11
2023-10-31T03:15:08.764Z,10.03
2023-10-31T03:17:35.247Z,10.12
2023-10-31T03:20:01.791Z,10.14
2023-10-31T03:22:28.302Z,10.15
2023-10-31T03:24:54.746Z,10.29
2023-10-31T03:27:21.209Z,10.40
2023-10-31T03:29:47.649Z,10.47
2023-10-31T03:32:14.105Z,10.38
2023-10-31T03:34:40.607Z,10.74
2023-10-31T03:37:07.060Z,10.97
2023-10-31T03:39:33.519Z,11.13
2023-10-31T03:42:00.113Z,10.99
2023-10-31T03:44:26.525Z,10.97
2023-10-31T03:46:52.988Z,11.18
2023-10-31T03:49:19.523Z,10.75
2023-10-31T03:51:45.953Z,10.69
2023-10-31T03:54:12.384Z,10.58
2023-10-31T03:56:38.811Z,10.33
2023-10-31T03:59:05.281Z,10.17
2023-10-31T04:01:31.824Z,10.00
2023-10-31T04:03:58.278Z,10.02
2023-10-31T04:06:24.738Z,10.02
2023-10-31T04:08:51.186Z,9.81
2023-10-31T04:11:17.649Z,9.78
2023-10-31T04:13:44.097Z,9.76
2023-10-31T04:16:10.699Z,9.84
2023-10-31T04:18:37.152Z,9.81
2023-10-31T04:21:03.577Z,9.70
2023-10-31T04:23:30.019Z,9.73
2023-10-31T04:25:56.528Z,9.69
2023-10-31T04:28:22.971Z,9.78
2023-10-31T04:30:49.485Z,9.80
2023-10-31T04:33:16.037Z,9.60
2023-10-31T04:35:42.488Z,9.87
2023-10-31T04:38:08.931Z,9.84
2023-10-31T04:40:35.356Z,9.86
2023-10-31T04:43:01.885Z,10.05
2023-10-31T04:45:28.324Z,10.20
2023-10-31T04:47:54.915Z,10.19
2023-10-31T04:50:21.512Z,10.02
2023-10-31T04:52:47.955Z,9.93
2023-10-31T04:55:16.695Z,9.94
2023-10-31T04:57:44.581Z,9.82
2023-10-31T05:00:11.066Z,10.04
2023-10-31T05:02:37.497Z,9.89
2023-10-31T05:05:04.070Z,9.81
2023-10-31T05:07:30.579Z,9.87
2023-10-31T05:09:57.017Z,10.11
2023-10-31T05:12:23.485Z,9.98
2023-10-31T05:14:49.913Z,9.94
2023-10-31T05:17:16.426Z,10.19
2023-10-31T05:19:42.917Z,10.11
2023-10-31T05:22:09.352Z,9.77
2023-10-31T05:24:35.838Z,9.60
2023-10-31T05:27:02.260Z,9.69
2023-10-31T05:29:28.700Z,9.87
2023-10-31T05:31:55.185Z,10.03
2023-10-31T05:34:21.711Z,10.10
2023-10-31T05:36:48.128Z,10.18
2023-10-31T05:39:14.554Z,10.32
2023-10-31T05:41:40.999Z,10.47
2023-10-31T05:44:07.540Z,10.55
2023-10-31T05:46:34.012Z,10.79
2023-10-31T05:49:00.434Z,11.03
2023-10-31T05:51:26.934Z,11.09
2023-10-31T05:53:53.394Z,11.46
2023-10-31T05:56:19.888Z,10.79
2023-10-31T05:58:46.488Z,10.69
2023-10-31T06:01:13.029Z,10.64
2023-10-31T06:03:39.498Z,10.66
2023-10-31T06:06:05.970Z,10.58
2023-10-31T06:08:32.462Z,10.74
2023-10-31T06:10:58.924Z,10.90
2023-10-31T06:13:25.430Z,10.55
2023-10-31T06:15:51.892Z,10.46
2023-10-31T06:18:18.335Z,10.37
2023-10-31T06:20:44.782Z,10.37
2023-10-31T06:23:11.290Z,10.51
2023-10-31T06:25:37.744Z,10.46
2023-10-31T06:28:04.191Z,10.09
2023-10-31T06:30:30.687Z,10.17
2023-10-31T06:32:57.344Z,10.30
2023-10-31T06:35:23.871Z,10.42
2023-10-31T06:37:50.340Z,10.27
2023-10-31T06:40:16.797Z,10.16
2023-10-31T06:42:43.274Z,9.97
2023-10-31T06:45:09.702Z,9.93
2023-10-31T06:47:36.226Z,9.64
2023-10-31T06:50:02.775Z,10.13
2023-10-31T06:52:29.209Z,9.62
2023-10-31T06:54:55.668Z,9.40
2023-10-31T06:57:22.098Z,9.64
2023-10-31T06:59:48.551Z,9.68
2023-10-31T07:02:15.076Z,9.75
2023-10-31T07:04:41.651Z,9.82
2023-10-31T07:07:08.155Z,10.10
2023-10-31T07:09:34.589Z,9.99
2023-10-31T07:12:01.027Z,10.04
2023-10-31T07:14:27.571Z,10.03
2023-10-31T07:16:54.000Z,9.97
2023-10-31T07:19:20.447Z,10.10
2023-10-31T07:21:46.930Z,10.20
2023-10-31T07:24:13.365Z,10.54
2023-10-31T07:26:39.773Z,10.22
2023-10-31T07:29:06.224Z,10.44
2023-10-31T07:31:32.741Z,10.44
2023-10-31T07:33:59.188Z,10.26
2023-10-31T07:36:25.622Z,10.59
2023-10-31T07:38:52.059Z,10.54
2023-10-31T07:41:18.546Z,10.62
2023-10-31T07:43:44.989Z,10.04
2023-10-31T07:46:11.477Z,9.99
2023-10-31T07:48:37.914Z,9.63
2023-10-31T07:51:04.395Z,9.71
2023-10-31T07:53:30.804Z,9.51
2023-10-31T07:55:57.261Z,9.48
2023-10-31T07:58:23.723Z,9.73
2023-10-31T08:00:50.147Z,9.87
2023-10-31T08:03:16.714Z,9.56
2023-10-31T08:05:43.195Z,9.25
2023-10-31T08:08:09.662Z,9.55
2023-10-31T08:10:36.151Z,9.64
2023-10-31T08:13:02.637Z,9.75
2023-10-31T08:15:29.146Z,9.68
2023-10-31T08:17:55.670Z,9.72
2023-10-31T08:20:22.165Z,9.49
2023-10-31T08:22:48.634Z,9.39
2023-10-31T08:25:15.078Z,9.47
2023-10-31T08:27:41.520Z,9.38
2023-10-31T08:30:07.947Z,9.53
2023-10-31T08:32:34.414Z,10.19
2023-10-31T08:35:00.927Z,9.86
2023-10-31T08:37:27.372Z,9.98
2023-10-31T08:39:53.793Z,9.76
2023-10-31T08:42:21.113Z,9.43
2023-10-31T08:44:47.526Z,9.63
2023-10-31T08:47:14.040Z,9.62
2023-10-31T08:49:40.497Z,9.24
2023-10-31T08:52:06.959Z,9.32
2023-10-31T08:54:33.427Z,9.19
2023-10-31T08:56:59.902Z,9.25
2023-10-31T08:59:26.372Z,9.21
2023-10-31T09:01:52.885Z,8.87
2023-10-31T09:04:19.301Z,8.87
2023-10-31T09:06:45.857Z,9.23
2023-10-31T09:09:12.317Z,9.03
2023-10-31T09:11:38.738Z,9.07
2023-10-31T09:14:05.173Z,9.11
2023-10-31T09:16:31.622Z,9.17
2023-10-31T09:18:58.056Z,9.31
2023-10-31T09:21:24.498Z,9.08
2023-10-31T09:23:51.009Z,9.14
2023-10-31T09:26:17.477Z,9.10
2023-10-31T09:28:43.940Z,9.37
2023-10-31T09:31:10.378Z,9.51
2023-10-31T09:33:36.854Z,9.58
2023-10-31T09:36:03.395Z,9.59
2023-10-31T09:38:29.834Z,9.51
2023-10-31T09:40:56.277Z,9.45
2023-10-31T09:43:22.757Z,9.46
2023-10-31T09:45:49.247Z,9.65
2023-10-31T09:48:15.685Z,9.47
2023-10-31T09:50:42.131Z,9.31
2023-10-31T09:53:08.572Z,9.31
2023-10-31T09:55:35.046Z,9.40
2023-10-31T09:58:01.479Z,9.48
2023-10-31T10:00:27.963Z,9.40
2023-10-31T10:02:54.551Z,9.43
2023-10-31T10:05:21.147Z,9.54
2023-10-31T10:07:47.583Z,9.87
2023-10-31T10:10:14.048Z,9.45
2023-10-31T10:12:40.478Z,9.37
2023-10-31T10:15:06.900Z,9.37
2023-10-31T10:17:33.381Z,9.27
2023-10-31T10:19:59.852Z,9.46
2023-10-31T10:22:26.313Z,9.27
2023-10-31T10:24:52.741Z,9.37
2023-10-31T10:27:19.178Z,9.32
2023-10-31T10:29:45.683Z,9.38
2023-10-31T10:32:12.130Z,9.72
2023-10-31T10:34:38.585Z,9.78
2023-10-31T10:37:05.024Z,9.87
2023-10-31T10:39:31.485Z,9.65
2023-10-31T10:41:57.967Z,9.86
2023-10-31T10:44:24.402Z,9.69
2023-10-31T10:46:50.981Z,9.54
2023-10-31T10:49:17.408Z,9.47
2023-10-31T10:51:43.827Z,9.39
2023-10-31T10:54:10.262Z,9.27
2023-10-31T10:56:36.700Z,9.36
2023-10-31T10:59:03.252Z,9.23
2023-10-31T11:01:29.748Z,9.21
2023-10-31T11:03:56.168Z,9.38
2023-10-31T11:06:22.608Z,9.67
2023-10-31T11:08:49.022Z,9.79
2023-10-31T11:11:15.440Z,9.61
2023-10-31T11:13:41.872Z,9.59
2023-10-31T11:16:08.300Z,9.56
2023-10-31T11:18:34.733Z,9.84
2023-10-31T11:21:01.178Z,9.92
2023-10-31T11:23:27.672Z,9.76
2023-10-31T11:25:54.105Z,9.85
2023-10-31T11:28:20.628Z,9.55
2023-10-31T11:30:47.117Z,9.59
2023-10-31T11:33:13.554Z,9.75
2023-10-31T11:35:39.984Z,9.90
2023-10-31T11:38:06.443Z,9.80
2023-10-31T11:40:33.041Z,10.13
2023-10-31T11:43:00.314Z,9.99
2023-10-31T11:45:26.750Z,10.16
2023-10-31T11:47:56.010Z,10.16
2023-10-31T11:50:22.605Z,10.16
2023-10-31T11:52:49.520Z,10.05
2023-10-31T11:55:16.265Z,10.22
2023-10-31T11:57:42.709Z,10.39
2023-10-31T12:00:09.172Z,9.92
2023-10-31T12:02:35.735Z,9.97
2023-10-31T12:05:02.227Z,10.04
2023-10-31T12:07:28.687Z,9.73
2023-10-31T12:09:55.134Z,9.92
2023-10-31T12:12:21.557Z,9.64
2023-10-31T12:14:48.010Z,9.55
2023-10-31T12:17:14.662Z,9.58
2023-10-31T12:19:41.109Z,9.55
2023-10-31T12:22:07.545Z,9.50
2023-10-31T12:24:33.991Z,9.51
2023-10-31T12:27:00.400Z,9.50
2023-10-31T12:29:26.959Z,9.66
2023-10-31T12:31:53.890Z,9.64
2023-10-31T12:34:20.544Z,9.68
2023-10-31T12:36:46.972Z,9.65
2023-10-31T12:39:13.571Z,9.86
2023-10-31T12:41:40.064Z,9.96
2023-10-31T12:44:06.533Z,9.99
2023-10-31T12:46:33.013Z,10.05
2023-10-31T12:48:59.434Z,10.20
2023-10-31T12:51:25.927Z,10.66
2023-10-31T12:53:52.406Z,10.96
2023-10-31T12:56:18.844Z,11.30
2023-10-31T12:58:45.317Z,11.39
2023-10-31T13:01:11.734Z,11.55
2023-10-31T13:03:38.258Z,11.39
2023-10-31T13:06:04.749Z,10.55
2023-10-31T13:08:31.262Z,10.22
2023-10-31T13:10:57.746Z,10.08
2023-10-31T13:13:24.345Z,10.05
2023-10-31T13:15:50.845Z,10.27
2023-10-31T13:18:17.304Z,10.27
2023-10-31T13:20:43.735Z,10.44
2023-10-31T13:23:10.264Z,10.40
2023-10-31T13:25:36.852Z,10.43
2023-10-31T13:28:03.383Z,10.52
2023-10-31T13:30:29.857Z,10.55
2023-10-31T13:32:56.368Z,10.62
2023-10-31T13:35:22.840Z,10.68
2023-10-31T13:37:49.345Z,10.64
2023-10-31T13:40:15.802Z,10.42
2023-10-31T13:42:42.248Z,10.32
2023-10-31T13:45:08.708Z,10.25
2023-10-31T13:47:35.318Z,10.32
2023-10-31T13:50:01.862Z,10.34
2023-10-31T13:52:28.339Z,10.35
2023-10-31T13:54:54.807Z,10.68
2023-10-31T13:57:21.309Z,10.47
2023-10-31T13:59:47.779Z,10.55
2023-10-31T14:02:14.318Z,10.67
2023-10-31T14:04:41.001Z,10.52
2023-10-31T14:07:07.522Z,10.58
2023-10-31T14:09:33.980Z,10.57
2023-10-31T14:12:00.470Z,10.66
2023-10-31T14:14:27.041Z,10.58
2023-10-31T14:16:53.481Z,10.64
2023-10-31T14:19:19.925Z,10.73
2023-10-31T14:21:46.449Z,10.93
2023-10-31T14:24:13.544Z,11.13
2023-10-31T14:26:40.235Z,10.96
2023-10-31T14:29:06.722Z,11.15
2023-10-31T14:31:33.165Z,11.23
2023-10-31T14:33:59.609Z,11.23
2023-10-31T14:36:26.085Z,11.04
2023-10-31T14:38:52.503Z,10.84
2023-10-31T14:41:19.005Z,10.95
2023-10-31T14:43:45.522Z,10.98
2023-10-31T14:46:11.978Z,11.04
2023-10-31T14:48:38.435Z,11.23
2023-10-31T14:51:05.014Z,11.26
2023-10-31T14:53:31.590Z,11.30
2023-10-31T14:55:58.056Z,11.31
2023-10-31T14:58:24.475Z,11.33
2023-10-31T15:00:51.040Z,11.35
2023-10-31T15:03:17.479Z,11.30
2023-10-31T15:05:44.049Z,12.22
2023-10-31T15:08:11.736Z,13.42
2023-10-31T15:10:38.200Z,13.41
2023-10-31T15:13:05.875Z,13.63
2023-10-31T15:15:32.512Z,13.38
2023-10-31T15:17:58.981Z,12.11
2023-10-31T15:20:25.478Z,11.84
2023-10-31T15:22:51.923Z,12.12
2023-10-31T15:25:18.377Z,12.02
2023-10-31T15:27:44.832Z,12.01
2023-10-31T15:30:11.276Z,11.71
2023-10-31T15:32:37.805Z,11.46
2023-10-31T15:35:04.271Z,11.36
2023-10-31T15:37:30.713Z,11.33
2023-10-31T15:39:57.257Z,11.36
2023-10-31T15:42:24.699Z,11.51
2023-10-31T15:44:51.209Z,13.07
2023-10-31T15:47:17.651Z,15.00
2023-10-31T15:49:44.128Z,12.78
2023-10-31T15:52:10.563Z,11.99
2023-10-31T15:54:36.994Z,12.40
2023-10-31T15:57:03.480Z,11.86
2023-10-31T15:59:29.891Z,11.93
2023-10-31T16:01:56.441Z,11.77
2023-10-31T16:04:22.891Z,11.54
2023-10-31T16:06:49.341Z,11.46
2023-10-31T16:09:15.814Z,11.51
2023-10-31T16:11:42.362Z,11.53
2023-10-31T16:14:08.872Z,11.43
2023-10-31T16:16:35.485Z,11.53
2023-10-31T16:19:01.962Z,11.64
2023-10-31T16:21:28.401Z,11.78
2023-10-31T16:23:54.850Z,11.69
2023-10-31T16:26:21.356Z,11.71
2023-10-31T16:28:47.826Z,11.66
2023-10-31T16:31:14.245Z,11.72
2023-10-31T16:33:40.693Z,11.89
2023-10-31T16:36:07.137Z,11.95
2023-10-31T16:38:33.704Z,11.87
2023-10-31T16:41:01.935Z,11.60
2023-10-31T16:43:28.464Z,11.64
2023-10-31T16:45:54.929Z,11.86
2023-10-31T16:48:21.430Z,11.78
2023-10-31T16:50:47.926Z,11.87
2023-10-31T16:53:14.470Z,11.87
2023-10-31T16:55:40.932Z,12.04
2023-10-31T16:58:07.351Z,12.02
2023-10-31T17:00:33.831Z,12.20
2023-10-31T17:03:00.387Z,12.48
2023-10-31T17:05:27.026Z,12.11
2023-10-31T17:07:53.471Z,12.19
2023-10-31T17:10:19.943Z,12.05
2023-10-31T17:12:46.396Z,11.92
2023-10-31T17:15:12.838Z,11.70
2023-10-31T17:17:39.511Z,11.80
2023-10-31T17:20:06.153Z,11.84
2023-10-31T17:22:33.951Z,11.61
2023-10-31T17:25:00.572Z,11.37
2023-10-31T17:27:27.022Z,11.34
2023-10-31T17:29:53.471Z,11.74
2023-10-31T17:32:22.967Z,12.12
2023-10-31T17:34:50.100Z,12.49
2023-10-31T17:37:16.648Z,12.05
2023-10-31T17:39:43.102Z,11.80
2023-10-31T17:42:09.572Z,12.33
2023-10-31T17:44:36.005Z,12.30
2023-10-31T17:47:02.423Z,12.46
2023-10-31T17:49:28.856Z,11.69
2023-10-31T17:51:55.263Z,11.69
2023-10-31T17:54:21.729Z,11.63
2023-10-31T17:56:48.275Z,11.98
2023-10-31T17:59:14.779Z,11.74
2023-10-31T18:01:41.290Z,12.03
2023-10-31T18:04:07.794Z,12.05
2023-10-31T18:06:34.276Z,12.24
2023-10-31T18:09:00.711Z,11.63
2023-10-31T18:11:27.251Z,11.62
2023-10-31T18:13:53.704Z,11.80
2023-10-31T18:16:20.214Z,11.45
2023-10-31T18:18:46.665Z,11.46
2023-10-31T18:21:13.107Z,11.46
2023-10-31T18:23:39.549Z,11.44
2023-10-31T18:26:06.064Z,11.52
2023-10-31T18:28:32.578Z,11.99
2023-10-31T18:30:59.001Z,11.43
2023-10-31T18:33:25.504Z,11.24
2023-10-31T18:35:51.977Z,11.33
2023-10-31T18:38:18.400Z,11.39
2023-10-31T18:40:44.833Z,11.32
2023-10-31T18:43:11.266Z,11.19
2023-10-31T18:45:37.738Z,10.93
2023-10-31T18:48:04.305Z,10.55
2023-10-31T18:50:30.928Z,11.03
2023-10-31T18:52:57.402Z,11.02
2023-10-31T18:55:23.877Z,10.97
2023-10-31T18:57:50.333Z,10.65
2023-10-31T19:00:16.836Z,10.69
2023-10-31T19:02:43.355Z,10.81
2023-10-31T19:05:09.971Z,11.16
2023-10-31T19:07:36.405Z,11.13
2023-10-31T19:10:02.880Z,11.16
2023-10-31T19:12:29.326Z,11.63
2023-10-31T19:14:55.789Z,11.63
2023-10-31T19:17:22.447Z,11.67
2023-10-31T19:19:48.936Z,11.05
2023-10-31T19:22:15.362Z,11.49
2023-10-31T19:24:41.836Z,11.23
2023-10-31T19:27:08.371Z,11.04
2023-10-31T19:29:35.059Z,10.94
2023-10-31T19:32:01.516Z,11.15
2023-10-31T19:34:28.017Z,11.43
2023-10-31T19:36:54.460Z,11.84
2023-10-31T19:39:20.886Z,12.11
2023-10-31T19:41:47.415Z,11.61
2023-10-31T19:44:14.040Z,11.61
2023-10-31T19:46:40.510Z,11.16
2023-10-31T19:49:06.977Z,11.38
2023-10-31T19:51:33.490Z,11.27
2023-10-31T19:53:59.960Z,11.71
2023-10-31T19:56:26.425Z,11.49
2023-10-31T19:58:52.919Z,11.55
2023-10-31T20:01:19.403Z,11.10
2023-10-31T20:03:46.066Z,11.07
2023-10-31T20:06:12.638Z,11.16
2023-10-31T20:08:39.103Z,11.50
2023-10-31T20:11:05.563Z,11.64
2023-10-31T20:13:32.034Z,11.58
2023-10-31T20:16:00.420Z,11.76
2023-10-31T20:18:26.943Z,11.02
2023-10-31T20:20:53.459Z,10.91
2023-10-31T20:23:20.004Z,10.75
2023-10-31T20:25:46.481Z,10.63
2023-10-31T20:28:12.945Z,10.62
2023-10-31T20:30:39.432Z,10.43
2023-10-31T20:33:05.986Z,10.52
2023-10-31T20:35:32.496Z,10.53
2023-10-31T20:37:59.026Z,10.33
2023-10-31T20:40:25.476Z,10.75
2023-10-31T20:42:51.931Z,10.30
2023-10-31T20:45:18.479Z,10.15
2023-10-31T20:47:44.965Z,10.43
2023-10-31T20:50:11.560Z,10.37
2023-10-31T20:52:38.035Z,10.45
2023-10-31T20:55:04.533Z,10.57
2023-10-31T20:57:30.984Z,10.34
2023-10-31T20:59:57.616Z,10.20
2023-10-31T21:02:24.096Z,10.13
2023-10-31T21:04:52.061Z,10.18
2023-10-31T21:07:19.149Z,10.28
2023-10-31T21:09:45.606Z,10.42
2023-10-31T21:12:12.038Z,10.58
2023-10-31T21:14:38.587Z,10.83
2023-10-31T21:17:05.264Z,11.04
2023-10-31T21:19:36.274Z,10.99
2023-10-31T21:22:03.050Z,11.10
2023-10-31T21:24:29.567Z,10.67
2023-10-31T21:26:55.988Z,10.42
2023-10-31T21:29:22.420Z,10.62
2023-10-31T21:31:48.872Z,10.81
2023-10-31T21:34:16.440Z,11.40
2023-10-31T21:36:43.130Z,11.43
2023-10-31T21:39:09.591Z,11.65
2023-10-31T21:41:36.011Z,11.89
2023-10-31T21:44:02.482Z,12.06
2023-10-31T21:46:28.928Z,12.12
2023-10-31T21:48:55.435Z,12.25
2023-10-31T21:51:21.853Z,12.16
2023-10-31T21:53:48.304Z,12.17
2023-10-31T21:56:14.779Z,12.14
2023-10-31T21:58:41.213Z,12.28
2023-10-31T22:01:07.695Z,12.34
2023-10-31T22:03:34.355Z,12.43
2023-10-31T22:06:01.117Z,12.44
2023-10-31T22:08:27.612Z,12.24
2023-10-31T22:10:54.108Z,12.39
2023-10-31T22:13:20.557Z,12.34
2023-10-31T22:15:47.026Z,12.34
2023-10-31T22:18:13.498Z,12.09
2023-10-31T22:20:40.012Z,11.71
2023-10-31T22:23:06.493Z,12.18
2023-10-31T22:25:32.919Z,12.33
2023-10-31T22:27:59.364Z,12.40
2023-10-31T22:30:25.810Z,12.44
2023-10-31T22:32:52.350Z,12.46
2023-10-31T22:35:18.803Z,12.51
2023-10-31T22:37:45.260Z,12.63
2023-10-31T22:40:11.705Z,12.45
2023-10-31T22:42:38.133Z,12.41
2023-10-31T22:45:04.620Z,12.49
2023-10-31T22:47:31.120Z,12.39
2023-10-31T22:49:57.589Z,11.92
2023-10-31T22:52:24.017Z,11.39
2023-10-31T22:54:50.457Z,11.75
2023-10-31T22:57:16.886Z,11.81
2023-10-31T22:59:43.308Z,11.77
2023-10-31T23:02:09.761Z,11.88
2023-10-31T23:04:36.223Z,11.39
2023-10-31T23:07:02.661Z,11.19
2023-10-31T23:09:29.112Z,11.13
2023-10-31T23:11:55.556Z,10.88
2023-10-31T23:14:22.158Z,10.76
2023-10-31T23:16:48.614Z,10.90
2023-10-31T23:19:15.048Z,10.90
2023-10-31T23:21:41.480Z,10.74
2023-10-31T23:24:07.930Z,10.83
2023-10-31T23:26:34.408Z,11.04
2023-10-31T23:29:00.894Z,10.75
2023-10-31T23:31:27.497Z,11.03
2023-10-31T23:33:53.999Z,10.73
2023-10-31T23:36:20.438Z,11.12
2023-10-31T23:38:46.939Z,11.45
2023-10-31T23:41:13.394Z,11.30
2023-10-31T23:43:39.819Z,10.84
2023-10-31T23:46:06.246Z,10.67
2023-10-31T23:48:32.760Z,10.68
2023-10-31T23:50:59.214Z,10.59
2023-10-31T23:53:25.649Z,10.78
2023-10-31T23:55:52.101Z,11.12
2023-10-31T23:58:18.532Z,11.29
